sensor_id;sensor_type;location;lat;lon;timestamp;temperature;humidity
21559;DHT22;10940;48.890;8.240;2023-04-09T00:01:05;9.20;99.90
21559;DHT22;10940;48.890;8.240;2023-04-09T00:03:31;9.20;99.90
21559;DHT22;10940;48.890;8.240;2023-04-09T00:05:56;9.20;99.90
21559;DHT22;10940;48.890;8.240;2023-04-09T00:08:22;9.20;99.90
21559;DHT22;10940;48.890;8.240;2023-04-09T00:10:49;9.20;99.90
21559;DHT22;10940;48.890;8.240;2023-04-09T00:13:14;9.20;99.90
21559;DHT22;10940;48.890;8.240;2023-04-09T00:15:40;9.20;99.90
21559;DHT22;10940;48.890;8.240;2023-04-09T00:18:06;9.10;99.90
21559;DHT22;10940;48.890;8.240;2023-04-09T00:20:31;9.10;99.90
21559;DHT22;10940;48.890;8.240;2023-04-09T00:22:57;9.10;99.90
21559;DHT22;10940;48.890;8.240;2023-04-09T00:25:23;9.10;99.90
21559;DHT22;10940;48.890;8.240;2023-04-09T00:27:49;9.10;99.90
21559;DHT22;10940;48.890;8.240;2023-04-09T00:30:15;9.00;99.90
21559;DHT22;10940;48.890;8.240;2023-04-09T00:32:40;9.00;99.90
21559;DHT22;10940;48.890;8.240;2023-04-09T00:35:06;9.00;99.90
21559;DHT22;10940;48.890;8.240;2023-04-09T00:37:32;9.00;99.90
21559;DHT22;10940;48.890;8.240;2023-04-09T00:39:58;8.90;99.90
21559;DHT22;10940;48.890;8.240;2023-04-09T00:42:24;8.90;99.90
21559;DHT22;10940;48.890;8.240;2023-04-09T00:44:50;8.90;99.90
21559;DHT22;10940;48.890;8.240;2023-04-09T00:47:16;8.90;99.90
21559;DHT22;10940;48.890;8.240;2023-04-09T00:49:42;8.90;99.90
21559;DHT22;10940;48.890;8.240;2023-04-09T00:52:09;8.90;99.90
21559;DHT22;10940;48.890;8.240;2023-04-09T00:54:35;8.80;99.90
21559;DHT22;10940;48.890;8.240;2023-04-09T00:57:02;8.80;99.90
21559;DHT22;10940;48.890;8.240;2023-04-09T00:59:28;8.80;99.90
21559;DHT22;10940;48.890;8.240;2023-04-09T01:01:54;8.80;99.90
21559;DHT22;10940;48.890;8.240;2023-04-09T01:04:20;8.80;99.90
21559;DHT22;10940;48.890;8.240;2023-04-09T01:07:03;8.80;99.90
21559;DHT22;10940;48.890;8.240;2023-04-09T01:09:34;8.70;99.90
21559;DHT22;10940;48.890;8.240;2023-04-09T01:12:05;8.70;99.90
21559;DHT22;10940;48.890;8.240;2023-04-09T01:14:48;8.70;99.90
21559;DHT22;10940;48.890;8.240;2023-04-09T01:17:30;8.70;99.90
21559;DHT22;10940;48.890;8.240;2023-04-09T01:20:01;8.70;99.90
21559;DHT22;10940;48.890;8.240;2023-04-09T01:28:13;8.70;99.90
21559;DHT22;10940;48.890;8.240;2023-04-09T01:30:42;8.60;99.90
21559;DHT22;10940;48.890;8.240;2023-04-09T01:33:12;8.60;99.90
21559;DHT22;10940;48.890;8.240;2023-04-09T01:35:44;8.70;99.90
21559;DHT22;10940;48.890;8.240;2023-04-09T01:38:12;8.70;99.90
21559;DHT22;10940;48.890;8.240;2023-04-09T01:40:38;8.70;99.90
21559;DHT22;10940;48.890;8.240;2023-04-09T01:43:05;8.70;99.90
21559;DHT22;10940;48.890;8.240;2023-04-09T01:45:32;8.70;99.90
21559;DHT22;10940;48.890;8.240;2023-04-09T01:47:58;8.70;99.90
21559;DHT22;10940;48.890;8.240;2023-04-09T01:50:24;8.70;99.90
21559;DHT22;10940;48.890;8.240;2023-04-09T01:52:50;8.70;99.90
21559;DHT22;10940;48.890;8.240;2023-04-09T01:55:16;8.70;99.90
21559;DHT22;10940;48.890;8.240;2023-04-09T01:57:42;8.70;99.90
21559;DHT22;10940;48.890;8.240;2023-04-09T02:00:09;8.70;99.90
21559;DHT22;10940;48.890;8.240;2023-04-09T02:02:41;8.70;99.90
21559;DHT22;10940;48.890;8.240;2023-04-09T02:05:11;8.70;99.90
21559;DHT22;10940;48.890;8.240;2023-04-09T02:07:51;8.70;99.90
21559;DHT22;10940;48.890;8.240;2023-04-09T02:10:19;8.70;99.90
21559;DHT22;10940;48.890;8.240;2023-04-09T02:12:49;8.70;99.90
21559;DHT22;10940;48.890;8.240;2023-04-09T02:15:15;8.70;99.90
21559;DHT22;10940;48.890;8.240;2023-04-09T02:17:42;8.80;99.90
21559;DHT22;10940;48.890;8.240;2023-04-09T02:20:08;8.70;99.90
21559;DHT22;10940;48.890;8.240;2023-04-09T02:22:33;8.70;99.90
21559;DHT22;10940;48.890;8.240;2023-04-09T02:24:59;8.70;99.90
21559;DHT22;10940;48.890;8.240;2023-04-09T02:27:25;8.60;99.90
21559;DHT22;10940;48.890;8.240;2023-04-09T02:29:50;8.60;99.90
21559;DHT22;10940;48.890;8.240;2023-04-09T02:32:16;8.60;99.90
21559;DHT22;10940;48.890;8.240;2023-04-09T02:34:41;8.50;99.90
21559;DHT22;10940;48.890;8.240;2023-04-09T02:37:07;8.50;99.90
21559;DHT22;10940;48.890;8.240;2023-04-09T02:39:32;8.50;99.90
21559;DHT22;10940;48.890;8.240;2023-04-09T02:41:58;8.50;99.90
21559;DHT22;10940;48.890;8.240;2023-04-09T02:44:24;8.50;99.90
21559;DHT22;10940;48.890;8.240;2023-04-09T02:46:50;8.40;99.90
21559;DHT22;10940;48.890;8.240;2023-04-09T02:49:17;8.40;99.90
21559;DHT22;10940;48.890;8.240;2023-04-09T02:51:42;8.40;99.90
21559;DHT22;10940;48.890;8.240;2023-04-09T02:54:08;8.40;99.90
21559;DHT22;10940;48.890;8.240;2023-04-09T02:56:33;8.30;99.90
21559;DHT22;10940;48.890;8.240;2023-04-09T02:58:59;8.30;99.90
21559;DHT22;10940;48.890;8.240;2023-04-09T03:01:24;8.30;99.90
21559;DHT22;10940;48.890;8.240;2023-04-09T03:03:50;8.30;99.90
21559;DHT22;10940;48.890;8.240;2023-04-09T03:06:16;8.30;99.90
21559;DHT22;10940;48.890;8.240;2023-04-09T03:08:42;8.20;99.90
21559;DHT22;10940;48.890;8.240;2023-04-09T03:11:08;8.20;99.90
21559;DHT22;10940;48.890;8.240;2023-04-09T03:13:34;8.20;99.90
21559;DHT22;10940;48.890;8.240;2023-04-09T03:15:59;8.20;99.90
21559;DHT22;10940;48.890;8.240;2023-04-09T03:18:25;8.10;99.90
21559;DHT22;10940;48.890;8.240;2023-04-09T03:20:50;8.10;99.90
21559;DHT22;10940;48.890;8.240;2023-04-09T03:23:16;8.10;99.90
21559;DHT22;10940;48.890;8.240;2023-04-09T03:25:41;8.00;99.90
21559;DHT22;10940;48.890;8.240;2023-04-09T03:28:07;8.00;99.90
21559;DHT22;10940;48.890;8.240;2023-04-09T03:30:32;8.00;99.90
21559;DHT22;10940;48.890;8.240;2023-04-09T03:32:58;8.00;99.90
21559;DHT22;10940;48.890;8.240;2023-04-09T03:35:24;8.00;99.90
21559;DHT22;10940;48.890;8.240;2023-04-09T03:37:49;7.90;99.90
21559;DHT22;10940;48.890;8.240;2023-04-09T03:40:15;8.00;99.90
21559;DHT22;10940;48.890;8.240;2023-04-09T03:42:42;7.90;99.90
21559;DHT22;10940;48.890;8.240;2023-04-09T03:45:07;7.90;99.90
21559;DHT22;10940;48.890;8.240;2023-04-09T03:47:33;7.90;99.90
21559;DHT22;10940;48.890;8.240;2023-04-09T03:49:59;7.90;99.90
21559;DHT22;10940;48.890;8.240;2023-04-09T03:52:24;7.90;99.90
21559;DHT22;10940;48.890;8.240;2023-04-09T03:54:50;7.90;99.90
21559;DHT22;10940;48.890;8.240;2023-04-09T03:57:15;7.90;99.90
21559;DHT22;10940;48.890;8.240;2023-04-09T03:59:41;7.80;99.90
21559;DHT22;10940;48.890;8.240;2023-04-09T04:02:06;7.70;99.90
21559;DHT22;10940;48.890;8.240;2023-04-09T04:04:32;7.70;99.90
21559;DHT22;10940;48.890;8.240;2023-04-09T04:06:57;7.70;99.90
21559;DHT22;10940;48.890;8.240;2023-04-09T04:09:23;7.70;99.90
21559;DHT22;10940;48.890;8.240;2023-04-09T04:11:49;7.60;99.90
21559;DHT22;10940;48.890;8.240;2023-04-09T04:14:15;7.50;99.90
21559;DHT22;10940;48.890;8.240;2023-04-09T04:16:40;7.50;99.90
21559;DHT22;10940;48.890;8.240;2023-04-09T04:19:06;7.40;99.90
21559;DHT22;10940;48.890;8.240;2023-04-09T04:21:31;7.40;99.90
21559;DHT22;10940;48.890;8.240;2023-04-09T04:23:57;7.30;99.90
21559;DHT22;10940;48.890;8.240;2023-04-09T04:26:23;7.20;99.90
21559;DHT22;10940;48.890;8.240;2023-04-09T04:28:48;7.10;99.90
21559;DHT22;10940;48.890;8.240;2023-04-09T04:31:14;7.00;99.90
21559;DHT22;10940;48.890;8.240;2023-04-09T04:33:40;6.90;99.90
21559;DHT22;10940;48.890;8.240;2023-04-09T04:36:11;6.80;99.90
21559;DHT22;10940;48.890;8.240;2023-04-09T04:38:37;6.70;99.90
21559;DHT22;10940;48.890;8.240;2023-04-09T04:41:04;6.60;99.90
21559;DHT22;10940;48.890;8.240;2023-04-09T04:43:30;6.60;99.90
21559;DHT22;10940;48.890;8.240;2023-04-09T04:45:56;6.50;99.90
21559;DHT22;10940;48.890;8.240;2023-04-09T04:48:22;6.40;99.90
21559;DHT22;10940;48.890;8.240;2023-04-09T04:50:54;6.30;99.90
21559;DHT22;10940;48.890;8.240;2023-04-09T04:53:20;6.20;99.90
21559;DHT22;10940;48.890;8.240;2023-04-09T04:55:46;6.20;99.90
21559;DHT22;10940;48.890;8.240;2023-04-09T04:58:12;6.20;99.90
21559;DHT22;10940;48.890;8.240;2023-04-09T05:00:37;6.10;99.90
21559;DHT22;10940;48.890;8.240;2023-04-09T05:03:03;6.10;99.90
21559;DHT22;10940;48.890;8.240;2023-04-09T05:05:28;6.10;99.90
21559;DHT22;10940;48.890;8.240;2023-04-09T05:07:54;6.00;99.90
21559;DHT22;10940;48.890;8.240;2023-04-09T05:10:20;6.00;99.90
21559;DHT22;10940;48.890;8.240;2023-04-09T05:12:45;6.00;99.90
21559;DHT22;10940;48.890;8.240;2023-04-09T05:15:11;5.90;99.90
21559;DHT22;10940;48.890;8.240;2023-04-09T05:17:37;5.90;99.90
21559;DHT22;10940;48.890;8.240;2023-04-09T05:20:02;5.90;99.90
21559;DHT22;10940;48.890;8.240;2023-04-09T05:22:28;5.90;99.90
21559;DHT22;10940;48.890;8.240;2023-04-09T05:24:54;5.90;99.90
21559;DHT22;10940;48.890;8.240;2023-04-09T05:27:19;5.90;99.90
21559;DHT22;10940;48.890;8.240;2023-04-09T05:29:46;5.90;99.90
21559;DHT22;10940;48.890;8.240;2023-04-09T05:32:12;5.90;99.90
21559;DHT22;10940;48.890;8.240;2023-04-09T05:34:37;5.90;99.90
21559;DHT22;10940;48.890;8.240;2023-04-09T05:37:03;6.00;99.90
21559;DHT22;10940;48.890;8.240;2023-04-09T05:39:29;6.00;99.90
21559;DHT22;10940;48.890;8.240;2023-04-09T05:41:56;6.10;99.90
21559;DHT22;10940;48.890;8.240;2023-04-09T05:44:22;6.10;99.90
21559;DHT22;10940;48.890;8.240;2023-04-09T05:46:47;6.20;99.90
21559;DHT22;10940;48.890;8.240;2023-04-09T05:49:13;6.20;99.90
21559;DHT22;10940;48.890;8.240;2023-04-09T05:51:38;6.30;99.90
21559;DHT22;10940;48.890;8.240;2023-04-09T05:54:04;6.30;99.90
21559;DHT22;10940;48.890;8.240;2023-04-09T05:56:29;6.40;99.90
21559;DHT22;10940;48.890;8.240;2023-04-09T05:58:55;6.40;99.90
21559;DHT22;10940;48.890;8.240;2023-04-09T06:01:21;6.50;99.90
21559;DHT22;10940;48.890;8.240;2023-04-09T06:03:46;6.60;99.90
21559;DHT22;10940;48.890;8.240;2023-04-09T06:06:12;6.60;99.90
21559;DHT22;10940;48.890;8.240;2023-04-09T06:08:38;6.70;99.90
21559;DHT22;10940;48.890;8.240;2023-04-09T06:11:08;6.80;99.90
21559;DHT22;10940;48.890;8.240;2023-04-09T06:13:33;6.90;99.90
21559;DHT22;10940;48.890;8.240;2023-04-09T06:15:59;7.00;99.90
21559;DHT22;10940;48.890;8.240;2023-04-09T06:18:24;7.10;99.90
21559;DHT22;10940;48.890;8.240;2023-04-09T06:21:00;7.20;99.90
21559;DHT22;10940;48.890;8.240;2023-04-09T06:23:26;7.30;99.90
21559;DHT22;10940;48.890;8.240;2023-04-09T06:25:52;7.50;99.90
21559;DHT22;10940;48.890;8.240;2023-04-09T06:28:17;7.60;99.90
21559;DHT22;10940;48.890;8.240;2023-04-09T06:30:43;7.70;99.90
21559;DHT22;10940;48.890;8.240;2023-04-09T06:33:08;7.80;99.90
21559;DHT22;10940;48.890;8.240;2023-04-09T06:35:35;7.90;99.90
21559;DHT22;10940;48.890;8.240;2023-04-09T06:38:00;8.00;99.90
21559;DHT22;10940;48.890;8.240;2023-04-09T06:40:26;8.10;99.90
21559;DHT22;10940;48.890;8.240;2023-04-09T06:42:52;8.20;99.90
21559;DHT22;10940;48.890;8.240;2023-04-09T06:45:17;8.30;99.90
21559;DHT22;10940;48.890;8.240;2023-04-09T06:47:43;8.30;99.90
21559;DHT22;10940;48.890;8.240;2023-04-09T06:50:08;8.40;99.90
21559;DHT22;10940;48.890;8.240;2023-04-09T06:52:34;8.50;99.90
21559;DHT22;10940;48.890;8.240;2023-04-09T06:55:00;8.50;99.90
21559;DHT22;10940;48.890;8.240;2023-04-09T06:57:26;8.60;99.90
21559;DHT22;10940;48.890;8.240;2023-04-09T06:59:51;8.60;99.90
21559;DHT22;10940;48.890;8.240;2023-04-09T07:02:17;8.60;99.90
21559;DHT22;10940;48.890;8.240;2023-04-09T07:04:42;8.70;99.90
21559;DHT22;10940;48.890;8.240;2023-04-09T07:07:08;8.90;99.90
21559;DHT22;10940;48.890;8.240;2023-04-09T07:09:34;8.90;99.90
21559;DHT22;10940;48.890;8.240;2023-04-09T07:11:59;9.00;99.90
21559;DHT22;10940;48.890;8.240;2023-04-09T07:14:25;9.00;99.90
21559;DHT22;10940;48.890;8.240;2023-04-09T07:16:50;9.10;99.90
21559;DHT22;10940;48.890;8.240;2023-04-09T07:19:16;9.20;99.90
21559;DHT22;10940;48.890;8.240;2023-04-09T07:21:41;9.30;99.90
21559;DHT22;10940;48.890;8.240;2023-04-09T07:24:07;9.40;99.90
21559;DHT22;10940;48.890;8.240;2023-04-09T07:26:32;9.50;99.90
21559;DHT22;10940;48.890;8.240;2023-04-09T07:28:58;9.60;99.90
21559;DHT22;10940;48.890;8.240;2023-04-09T07:31:24;9.60;99.90
21559;DHT22;10940;48.890;8.240;2023-04-09T07:33:49;9.70;99.90
21559;DHT22;10940;48.890;8.240;2023-04-09T07:36:15;9.80;99.90
21559;DHT22;10940;48.890;8.240;2023-04-09T07:38:41;9.90;99.90
21559;DHT22;10940;48.890;8.240;2023-04-09T07:41:10;10.00;99.90
21559;DHT22;10940;48.890;8.240;2023-04-09T07:43:35;10.10;99.90
21559;DHT22;10940;48.890;8.240;2023-04-09T07:46:01;10.20;99.90
21559;DHT22;10940;48.890;8.240;2023-04-09T07:48:27;10.30;99.90
21559;DHT22;10940;48.890;8.240;2023-04-09T07:50:52;10.30;99.90
21559;DHT22;10940;48.890;8.240;2023-04-09T07:53:18;10.40;99.90
21559;DHT22;10940;48.890;8.240;2023-04-09T07:55:43;10.60;99.90
21559;DHT22;10940;48.890;8.240;2023-04-09T07:58:09;10.60;99.90
21559;DHT22;10940;48.890;8.240;2023-04-09T08:00:35;10.70;99.90
21559;DHT22;10940;48.890;8.240;2023-04-09T08:03:01;10.80;99.90
21559;DHT22;10940;48.890;8.240;2023-04-09T08:05:28;10.90;99.90
21559;DHT22;10940;48.890;8.240;2023-04-09T08:07:53;11.00;99.90
21559;DHT22;10940;48.890;8.240;2023-04-09T08:10:19;11.10;99.90
21559;DHT22;10940;48.890;8.240;2023-04-09T08:12:47;11.30;99.90
21559;DHT22;10940;48.890;8.240;2023-04-09T08:15:13;11.40;99.90
21559;DHT22;10940;48.890;8.240;2023-04-09T08:17:38;11.50;99.90
21559;DHT22;10940;48.890;8.240;2023-04-09T08:20:05;11.70;99.90
21559;DHT22;10940;48.890;8.240;2023-04-09T08:22:31;11.70;99.90
21559;DHT22;10940;48.890;8.240;2023-04-09T08:24:57;11.90;99.90
21559;DHT22;10940;48.890;8.240;2023-04-09T08:27:23;12.00;99.90
21559;DHT22;10940;48.890;8.240;2023-04-09T08:29:49;12.10;99.90
21559;DHT22;10940;48.890;8.240;2023-04-09T08:32:14;12.20;99.90
21559;DHT22;10940;48.890;8.240;2023-04-09T08:34:40;12.30;99.90
21559;DHT22;10940;48.890;8.240;2023-04-09T08:37:06;12.40;99.90
21559;DHT22;10940;48.890;8.240;2023-04-09T08:39:31;12.60;99.90
21559;DHT22;10940;48.890;8.240;2023-04-09T08:41:58;12.60;99.90
21559;DHT22;10940;48.890;8.240;2023-04-09T08:44:28;12.70;99.90
21559;DHT22;10940;48.890;8.240;2023-04-09T08:46:54;12.80;99.90
21559;DHT22;10940;48.890;8.240;2023-04-09T08:49:20;12.80;99.90
21559;DHT22;10940;48.890;8.240;2023-04-09T08:51:47;12.90;99.90
21559;DHT22;10940;48.890;8.240;2023-04-09T08:54:17;12.90;99.90
21559;DHT22;10940;48.890;8.240;2023-04-09T08:56:47;13.00;99.90
21559;DHT22;10940;48.890;8.240;2023-04-09T08:59:16;13.10;99.90
21559;DHT22;10940;48.890;8.240;2023-04-09T09:01:43;13.10;99.90
21559;DHT22;10940;48.890;8.240;2023-04-09T09:04:11;13.10;99.90
21559;DHT22;10940;48.890;8.240;2023-04-09T09:06:38;13.10;99.90
21559;DHT22;10940;48.890;8.240;2023-04-09T09:09:09;13.10;99.90
21559;DHT22;10940;48.890;8.240;2023-04-09T09:11:37;13.00;99.90
21559;DHT22;10940;48.890;8.240;2023-04-09T09:14:05;13.10;99.90
21559;DHT22;10940;48.890;8.240;2023-04-09T09:16:33;13.00;99.90
21559;DHT22;10940;48.890;8.240;2023-04-09T09:19:00;13.00;99.90
21559;DHT22;10940;48.890;8.240;2023-04-09T09:21:27;13.00;99.90
21559;DHT22;10940;48.890;8.240;2023-04-09T09:23:53;13.20;99.90
21559;DHT22;10940;48.890;8.240;2023-04-09T09:28:49;13.00;99.90
21559;DHT22;10940;48.890;8.240;2023-04-09T09:31:17;13.00;99.90
21559;DHT22;10940;48.890;8.240;2023-04-09T09:33:42;13.10;99.90
21559;DHT22;10940;48.890;8.240;2023-04-09T09:36:09;13.30;99.90
21559;DHT22;10940;48.890;8.240;2023-04-09T09:38:55;13.30;99.90
21559;DHT22;10940;48.890;8.240;2023-04-09T09:41:22;13.30;99.90
21559;DHT22;10940;48.890;8.240;2023-04-09T09:43:48;13.20;99.90
21559;DHT22;10940;48.890;8.240;2023-04-09T09:46:15;13.20;99.90
21559;DHT22;10940;48.890;8.240;2023-04-09T09:48:42;13.20;99.90
21559;DHT22;10940;48.890;8.240;2023-04-09T09:51:09;13.30;99.90
21559;DHT22;10940;48.890;8.240;2023-04-09T09:53:36;13.30;99.90
21559;DHT22;10940;48.890;8.240;2023-04-09T09:56:04;13.30;99.90
21559;DHT22;10940;48.890;8.240;2023-04-09T09:58:52;13.40;99.90
21559;DHT22;10940;48.890;8.240;2023-04-09T10:01:20;13.60;99.90
21559;DHT22;10940;48.890;8.240;2023-04-09T10:03:49;13.70;99.90
21559;DHT22;10940;48.890;8.240;2023-04-09T10:06:16;13.60;99.90
21559;DHT22;10940;48.890;8.240;2023-04-09T10:08:42;13.50;99.90
21559;DHT22;10940;48.890;8.240;2023-04-09T10:11:08;13.50;99.90
21559;DHT22;10940;48.890;8.240;2023-04-09T10:13:38;13.40;99.90
21559;DHT22;10940;48.890;8.240;2023-04-09T10:16:05;13.50;99.90
21559;DHT22;10940;48.890;8.240;2023-04-09T10:18:34;13.50;99.90
21559;DHT22;10940;48.890;8.240;2023-04-09T10:21:23;13.50;99.90
21559;DHT22;10940;48.890;8.240;2023-04-09T10:23:52;13.50;99.90
21559;DHT22;10940;48.890;8.240;2023-04-09T10:26:18;13.40;99.90
21559;DHT22;10940;48.890;8.240;2023-04-09T10:28:44;13.40;99.90
21559;DHT22;10940;48.890;8.240;2023-04-09T10:31:10;13.40;99.90
21559;DHT22;10940;48.890;8.240;2023-04-09T10:33:37;13.40;99.90
21559;DHT22;10940;48.890;8.240;2023-04-09T10:36:10;13.40;99.90
21559;DHT22;10940;48.890;8.240;2023-04-09T10:38:38;13.40;99.90
21559;DHT22;10940;48.890;8.240;2023-04-09T10:41:28;13.30;99.90
21559;DHT22;10940;48.890;8.240;2023-04-09T10:43:56;13.50;99.90
21559;DHT22;10940;48.890;8.240;2023-04-09T10:46:28;13.70;99.90
21559;DHT22;10940;48.890;8.240;2023-04-09T10:49:18;13.60;99.90
21559;DHT22;10940;48.890;8.240;2023-04-09T10:54:39;13.30;99.90
21559;DHT22;10940;48.890;8.240;2023-04-09T10:59:37;13.20;99.90
21559;DHT22;10940;48.890;8.240;2023-04-09T11:02:18;13.10;99.90
21559;DHT22;10940;48.890;8.240;2023-04-09T11:07:39;13.20;99.90
21559;DHT22;10940;48.890;8.240;2023-04-09T11:10:08;13.10;99.90
21559;DHT22;10940;48.890;8.240;2023-04-09T11:12:34;13.10;99.90
21559;DHT22;10940;48.890;8.240;2023-04-09T11:14:59;13.10;99.90
21559;DHT22;10940;48.890;8.240;2023-04-09T11:17:25;13.30;99.90
21559;DHT22;10940;48.890;8.240;2023-04-09T11:19:51;13.30;99.90
21559;DHT22;10940;48.890;8.240;2023-04-09T11:22:17;13.30;99.90
21559;DHT22;10940;48.890;8.240;2023-04-09T11:24:43;13.30;99.90
21559;DHT22;10940;48.890;8.240;2023-04-09T11:27:11;13.30;99.90
21559;DHT22;10940;48.890;8.240;2023-04-09T11:29:37;13.40;99.90
21559;DHT22;10940;48.890;8.240;2023-04-09T11:32:03;13.60;99.90
21559;DHT22;10940;48.890;8.240;2023-04-09T11:34:30;13.80;99.90
21559;DHT22;10940;48.890;8.240;2023-04-09T11:36:55;13.90;99.90
21559;DHT22;10940;48.890;8.240;2023-04-09T11:39:23;14.00;99.90
21559;DHT22;10940;48.890;8.240;2023-04-09T11:41:49;14.10;99.90
21559;DHT22;10940;48.890;8.240;2023-04-09T11:44:14;14.20;99.90
21559;DHT22;10940;48.890;8.240;2023-04-09T11:46:41;14.30;99.90
21559;DHT22;10940;48.890;8.240;2023-04-09T11:49:08;14.30;99.90
21559;DHT22;10940;48.890;8.240;2023-04-09T11:51:34;14.30;99.90
21559;DHT22;10940;48.890;8.240;2023-04-09T11:54:04;14.30;99.90
21559;DHT22;10940;48.890;8.240;2023-04-09T11:56:30;14.40;99.90
21559;DHT22;10940;48.890;8.240;2023-04-09T11:58:55;14.30;99.90
21559;DHT22;10940;48.890;8.240;2023-04-09T12:01:21;14.20;99.90
21559;DHT22;10940;48.890;8.240;2023-04-09T12:03:53;14.10;99.90
21559;DHT22;10940;48.890;8.240;2023-04-09T12:06:20;14.10;99.90
21559;DHT22;10940;48.890;8.240;2023-04-09T12:08:56;14.10;99.90
21559;DHT22;10940;48.890;8.240;2023-04-09T12:11:30;14.00;99.90
21559;DHT22;10940;48.890;8.240;2023-04-09T12:14:03;14.00;99.90
21559;DHT22;10940;48.890;8.240;2023-04-09T12:16:31;14.00;99.90
21559;DHT22;10940;48.890;8.240;2023-04-09T12:19:07;14.10;99.90
21559;DHT22;10940;48.890;8.240;2023-04-09T12:21:52;14.10;99.90
21559;DHT22;10940;48.890;8.240;2023-04-09T12:24:21;14.00;99.90
21559;DHT22;10940;48.890;8.240;2023-04-09T12:26:47;14.00;99.90
21559;DHT22;10940;48.890;8.240;2023-04-09T12:29:14;14.00;99.90
21559;DHT22;10940;48.890;8.240;2023-04-09T12:31:40;13.90;99.90
21559;DHT22;10940;48.890;8.240;2023-04-09T12:34:06;13.90;99.90
21559;DHT22;10940;48.890;8.240;2023-04-09T12:36:31;14.00;99.90
21559;DHT22;10940;48.890;8.240;2023-04-09T12:38:57;14.10;99.90
21559;DHT22;10940;48.890;8.240;2023-04-09T12:41:23;14.10;99.90
21559;DHT22;10940;48.890;8.240;2023-04-09T12:43:48;14.20;99.90
21559;DHT22;10940;48.890;8.240;2023-04-09T12:46:14;14.40;99.90
21559;DHT22;10940;48.890;8.240;2023-04-09T12:48:40;14.40;99.90
21559;DHT22;10940;48.890;8.240;2023-04-09T12:51:06;14.40;99.60
21559;DHT22;10940;48.890;8.240;2023-04-09T12:53:31;14.50;99.90
21559;DHT22;10940;48.890;8.240;2023-04-09T12:55:57;14.50;99.70
21559;DHT22;10940;48.890;8.240;2023-04-09T12:58:23;14.40;99.10
21559;DHT22;10940;48.890;8.240;2023-04-09T13:00:49;14.40;99.90
21559;DHT22;10940;48.890;8.240;2023-04-09T13:03:14;14.60;99.40
21559;DHT22;10940;48.890;8.240;2023-04-09T13:05:43;14.80;98.00
21559;DHT22;10940;48.890;8.240;2023-04-09T13:08:08;15.00;99.90
21559;DHT22;10940;48.890;8.240;2023-04-09T13:10:34;15.20;99.80
21559;DHT22;10940;48.890;8.240;2023-04-09T13:13:00;15.20;99.10
21559;DHT22;10940;48.890;8.240;2023-04-09T13:15:26;15.30;99.90
21559;DHT22;10940;48.890;8.240;2023-04-09T13:17:52;15.40;99.90
21559;DHT22;10940;48.890;8.240;2023-04-09T13:20:17;15.60;99.90
21559;DHT22;10940;48.890;8.240;2023-04-09T13:22:44;16.00;99.90
21559;DHT22;10940;48.890;8.240;2023-04-09T13:25:14;16.10;99.50
21559;DHT22;10940;48.890;8.240;2023-04-09T13:27:40;16.20;96.50
21559;DHT22;10940;48.890;8.240;2023-04-09T13:30:06;16.30;97.70
21559;DHT22;10940;48.890;8.240;2023-04-09T13:32:32;16.20;99.90
21559;DHT22;10940;48.890;8.240;2023-04-09T13:34:57;16.40;97.10
21559;DHT22;10940;48.890;8.240;2023-04-09T13:37:23;16.50;98.90
21559;DHT22;10940;48.890;8.240;2023-04-09T13:39:49;16.50;97.80
21559;DHT22;10940;48.890;8.240;2023-04-09T13:42:15;16.30;97.00
21559;DHT22;10940;48.890;8.240;2023-04-09T13:44:42;15.90;96.90
21559;DHT22;10940;48.890;8.240;2023-04-09T13:47:10;15.40;96.40
21559;DHT22;10940;48.890;8.240;2023-04-09T13:49:37;15.10;96.70
21559;DHT22;10940;48.890;8.240;2023-04-09T13:52:03;14.80;96.70
21559;DHT22;10940;48.890;8.240;2023-04-09T13:54:29;14.60;97.40
21559;DHT22;10940;48.890;8.240;2023-04-09T13:56:55;14.50;98.30
21559;DHT22;10940;48.890;8.240;2023-04-09T13:59:20;14.30;98.50
21559;DHT22;10940;48.890;8.240;2023-04-09T14:01:46;14.20;97.90
21559;DHT22;10940;48.890;8.240;2023-04-09T14:04:12;14.10;97.70
21559;DHT22;10940;48.890;8.240;2023-04-09T14:06:37;14.00;98.80
21559;DHT22;10940;48.890;8.240;2023-04-09T14:09:03;14.00;99.60
21559;DHT22;10940;48.890;8.240;2023-04-09T14:11:28;13.90;98.00
21559;DHT22;10940;48.890;8.240;2023-04-09T14:13:54;13.90;99.20
21559;DHT22;10940;48.890;8.240;2023-04-09T14:16:20;13.80;99.80
21559;DHT22;10940;48.890;8.240;2023-04-09T14:18:45;13.90;99.40
21559;DHT22;10940;48.890;8.240;2023-04-09T14:21:11;14.20;97.50
21559;DHT22;10940;48.890;8.240;2023-04-09T14:23:38;14.40;98.50
21559;DHT22;10940;48.890;8.240;2023-04-09T14:26:05;14.50;99.40
21559;DHT22;10940;48.890;8.240;2023-04-09T14:28:31;14.40;99.20
21559;DHT22;10940;48.890;8.240;2023-04-09T14:30:58;14.30;99.00
21559;DHT22;10940;48.890;8.240;2023-04-09T14:33:24;14.10;98.40
21559;DHT22;10940;48.890;8.240;2023-04-09T14:35:50;14.10;97.90
21559;DHT22;10940;48.890;8.240;2023-04-09T14:38:16;14.20;97.40
21559;DHT22;10940;48.890;8.240;2023-04-09T14:40:43;14.20;98.70
21559;DHT22;10940;48.890;8.240;2023-04-09T14:43:09;14.30;97.20
21559;DHT22;10940;48.890;8.240;2023-04-09T14:45:34;14.40;99.20
21559;DHT22;10940;48.890;8.240;2023-04-09T14:48:00;14.60;97.60
21559;DHT22;10940;48.890;8.240;2023-04-09T14:50:26;14.80;97.30
21559;DHT22;10940;48.890;8.240;2023-04-09T14:52:51;14.90;97.00
21559;DHT22;10940;48.890;8.240;2023-04-09T14:55:17;15.00;96.70
21559;DHT22;10940;48.890;8.240;2023-04-09T14:57:43;15.10;98.20
21559;DHT22;10940;48.890;8.240;2023-04-09T15:00:10;15.10;96.40
21559;DHT22;10940;48.890;8.240;2023-04-09T15:02:36;15.10;96.70
21559;DHT22;10940;48.890;8.240;2023-04-09T15:05:05;15.20;97.10
21559;DHT22;10940;48.890;8.240;2023-04-09T15:07:32;15.20;95.40
21559;DHT22;10940;48.890;8.240;2023-04-09T15:09:57;15.10;96.40
21559;DHT22;10940;48.890;8.240;2023-04-09T15:12:30;15.10;97.20
21559;DHT22;10940;48.890;8.240;2023-04-09T15:14:56;15.20;98.00
21559;DHT22;10940;48.890;8.240;2023-04-09T15:17:22;15.30;95.80
21559;DHT22;10940;48.890;8.240;2023-04-09T15:19:48;15.30;96.60
21559;DHT22;10940;48.890;8.240;2023-04-09T15:22:14;15.40;97.40
21559;DHT22;10940;48.890;8.240;2023-04-09T15:24:39;15.40;96.50
21559;DHT22;10940;48.890;8.240;2023-04-09T15:27:05;15.50;97.50
21559;DHT22;10940;48.890;8.240;2023-04-09T15:29:31;15.40;96.00
21559;DHT22;10940;48.890;8.240;2023-04-09T15:31:57;15.40;98.10
21559;DHT22;10940;48.890;8.240;2023-04-09T15:34:22;15.60;99.10
21559;DHT22;10940;48.890;8.240;2023-04-09T15:36:50;15.60;97.30
21559;DHT22;10940;48.890;8.240;2023-04-09T15:39:16;15.80;97.70
21559;DHT22;10940;48.890;8.240;2023-04-09T15:41:42;15.90;97.50
21559;DHT22;10940;48.890;8.240;2023-04-09T15:44:07;16.30;96.80
21559;DHT22;10940;48.890;8.240;2023-04-09T15:46:33;16.50;95.10
21559;DHT22;10940;48.890;8.240;2023-04-09T15:48:59;16.50;96.20
21559;DHT22;10940;48.890;8.240;2023-04-09T15:51:24;16.30;95.70